createdAt,value
2022-10-05T00:00:44.667Z,10.10
2022-10-05T00:01:44.717Z,9.90
2022-10-05T00:02:44.667Z,10.70
2022-10-05T00:03:44.637Z,11.50
2022-10-05T00:04:44.656Z,8.50
2022-10-05T00:05:44.635Z,9.60
2022-10-05T00:06:44.893Z,11.00
2022-10-05T00:07:44.598Z,10.20
2022-10-05T00:08:44.587Z,10.10
2022-10-05T00:09:44.547Z,11.90
2022-10-05T00:10:44.548Z,14.60
2022-10-05T00:11:44.533Z,11.10
2022-10-05T00:12:44.530Z,10.20
2022-10-05T00:13:44.508Z,11.40
2022-10-05T00:14:44.498Z,7.80
2022-10-05T00:15:44.479Z,9.60
2022-10-05T00:16:44.659Z,11.00
2022-10-05T00:17:44.438Z,9.50
2022-10-05T00:18:44.448Z,11.00
2022-10-05T00:19:44.421Z,12.40
2022-10-05T00:20:44.409Z,15.20
2022-10-05T00:21:44.398Z,13.20
2022-10-05T00:22:44.389Z,7.40
2022-10-05T00:23:44.390Z,7.00
2022-10-05T00:24:44.368Z,10.40
2022-10-05T00:25:44.349Z,11.30
2022-10-05T00:26:44.691Z,8.30
2022-10-05T00:27:44.310Z,8.60
2022-10-05T00:28:44.311Z,9.50
2022-10-05T00:29:44.291Z,9.90
2022-10-05T00:30:44.281Z,8.00
2022-10-05T00:31:44.310Z,9.20
2022-10-05T00:32:44.249Z,8.40
2022-10-05T00:33:44.249Z,9.90
2022-10-05T00:34:44.220Z,9.10
2022-10-05T00:35:44.212Z,8.60
2022-10-05T00:36:44.449Z,5.90
2022-10-05T00:37:44.196Z,7.90
2022-10-05T00:38:44.289Z,11.50
2022-10-05T00:39:44.169Z,12.60
2022-10-05T00:40:44.151Z,8.00
2022-10-05T00:41:44.131Z,12.50
2022-10-05T00:42:44.171Z,9.80
2022-10-05T00:43:44.124Z,8.90
2022-10-05T00:44:44.182Z,8.80
2022-10-05T00:45:45.137Z,7.80
2022-10-05T00:46:44.403Z,8.70
2022-10-05T00:47:44.103Z,10.20
2022-10-05T00:48:44.050Z,10.70
2022-10-05T00:49:45.030Z,7.30
2022-10-05T00:50:44.132Z,10.20
2022-10-05T00:51:44.033Z,8.80
2022-10-05T00:52:44.035Z,8.70
2022-10-05T00:53:43.985Z,7.10
2022-10-05T00:54:44.052Z,8.90
2022-10-05T00:55:44.054Z,6.40
2022-10-05T00:56:44.314Z,6.80
2022-10-05T00:57:43.956Z,10.20
2022-10-05T00:58:43.932Z,12.60
2022-10-05T00:59:43.973Z,8.50
2022-10-05T01:00:43.983Z,8.30
2022-10-05T01:02:05.147Z,8.60
2022-10-05T01:02:43.931Z,9.30
2022-10-05T01:03:43.865Z,10.30
2022-10-05T01:04:43.915Z,10.00
2022-10-05T01:05:43.924Z,13.30
2022-10-05T01:06:44.180Z,9.40
2022-10-05T01:07:43.834Z,10.00
2022-10-05T01:08:43.784Z,9.20
2022-10-05T01:09:43.854Z,10.10
2022-10-05T01:10:43.854Z,8.20
2022-10-05T01:11:43.764Z,8.90
2022-10-05T01:12:43.764Z,7.50
2022-10-05T01:13:43.725Z,8.10
2022-10-05T01:14:43.830Z,5.70
2022-10-05T01:15:43.784Z,10.60
2022-10-05T01:16:44.198Z,9.30
2022-10-05T01:17:43.695Z,8.30
2022-10-05T01:18:43.665Z,10.20
2022-10-05T01:19:43.637Z,9.00
2022-10-05T01:20:43.616Z,7.10
2022-10-05T01:21:43.606Z,9.20
2022-10-05T01:22:43.586Z,9.30
2022-10-05T01:23:43.605Z,12.10
2022-10-05T01:24:43.578Z,8.40
2022-10-05T01:25:43.555Z,10.70
2022-10-05T01:26:43.717Z,12.10
2022-10-05T01:27:43.555Z,9.50
2022-10-05T01:28:43.532Z,8.30
2022-10-05T01:29:43.520Z,8.50
2022-10-05T01:30:43.484Z,10.60
2022-10-05T01:31:43.508Z,9.70
2022-10-05T01:32:44.467Z,9.90
2022-10-05T01:33:43.447Z,9.70
2022-10-05T01:34:43.438Z,13.30
2022-10-05T01:35:43.417Z,10.90
2022-10-05T01:36:43.560Z,9.10
2022-10-05T01:37:43.407Z,10.20
2022-10-05T01:38:43.396Z,12.20
2022-10-05T01:39:43.367Z,7.70
2022-10-05T01:40:43.357Z,8.60
2022-10-05T01:41:43.347Z,7.20
2022-10-05T01:42:43.329Z,11.30
2022-10-05T01:43:43.327Z,9.60
2022-10-05T01:44:43.307Z,11.80
2022-10-05T01:45:43.323Z,10.50
2022-10-05T01:46:43.421Z,9.20
2022-10-05T01:47:43.289Z,9.20
2022-10-05T01:48:43.265Z,9.40
2022-10-05T01:49:43.256Z,10.20
2022-10-05T01:50:43.220Z,11.30
2022-10-05T01:51:43.228Z,9.60
2022-10-05T01:52:43.198Z,6.50
2022-10-05T01:53:43.180Z,9.00
2022-10-05T01:54:43.179Z,11.80
2022-10-05T01:55:43.168Z,10.60
2022-10-05T01:56:43.511Z,8.10
2022-10-05T01:57:43.150Z,8.40
2022-10-05T01:58:43.111Z,9.50
2022-10-05T01:59:43.119Z,11.80
2022-10-05T02:00:43.138Z,7.40
2022-10-05T02:01:43.133Z,9.80
2022-10-05T02:02:43.147Z,7.20
2022-10-05T02:03:43.080Z,10.50
2022-10-05T02:05:01.375Z,13.90
2022-10-05T02:05:44.043Z,11.70
2022-10-05T02:06:43.185Z,9.90
2022-10-05T02:07:43.011Z,8.80
2022-10-05T02:08:43.001Z,10.50
2022-10-05T02:09:43.014Z,10.50
2022-10-05T02:10:42.973Z,9.80
2022-10-05T02:11:43.000Z,6.60
2022-10-05T02:12:42.951Z,10.10
2022-10-05T02:13:42.943Z,10.00
2022-10-05T02:14:42.944Z,8.90
2022-10-05T02:15:42.968Z,7.70
2022-10-05T02:16:43.181Z,8.20
2022-10-05T02:17:42.881Z,8.70
2022-10-05T02:18:42.861Z,9.00
2022-10-05T02:19:42.862Z,9.80
2022-10-05T02:20:42.850Z,7.60
2022-10-05T02:21:42.832Z,6.20
2022-10-05T02:22:42.811Z,10.80
2022-10-05T02:23:42.794Z,11.80
2022-10-05T02:24:42.809Z,14.70
2022-10-05T02:25:42.803Z,12.60
2022-10-05T02:26:42.871Z,12.60
2022-10-05T02:27:42.761Z,8.60
2022-10-05T02:28:42.742Z,8.50
2022-10-05T02:29:42.751Z,11.90
2022-10-05T02:30:42.722Z,7.80
2022-10-05T02:31:42.772Z,7.60
2022-10-05T02:32:42.692Z,9.30
2022-10-05T02:33:42.674Z,8.30
2022-10-05T02:34:42.672Z,9.00
2022-10-05T02:35:42.671Z,10.70
2022-10-05T02:36:42.647Z,8.70
2022-10-05T02:37:42.620Z,8.90
2022-10-05T02:38:42.614Z,13.20
2022-10-05T02:39:42.623Z,8.40
2022-10-05T02:40:42.596Z,11.90
2022-10-05T02:41:42.576Z,7.40
2022-10-05T02:42:42.566Z,8.60
2022-10-05T02:43:42.560Z,6.50
2022-10-05T02:44:42.554Z,7.90
2022-10-05T02:45:42.570Z,8.20
2022-10-05T02:46:42.522Z,11.10
2022-10-05T02:47:43.494Z,7.00
2022-10-05T02:48:42.493Z,11.60
2022-10-05T02:49:42.472Z,13.70
2022-10-05T02:50:42.464Z,10.00
2022-10-05T02:51:42.444Z,10.90
2022-10-05T02:52:42.445Z,6.30
2022-10-05T02:53:42.423Z,10.00
2022-10-05T02:54:42.431Z,11.20
2022-10-05T02:55:42.394Z,6.90
2022-10-05T02:56:42.384Z,7.40
2022-10-05T02:57:42.365Z,9.20
2022-10-05T02:58:42.354Z,7.30
2022-10-05T02:59:42.335Z,15.30
2022-10-05T03:00:42.397Z,10.50
2022-10-05T03:01:42.371Z,7.00
2022-10-05T03:02:42.305Z,8.90
2022-10-05T03:03:42.295Z,7.80
2022-10-05T03:04:42.276Z,9.00
2022-10-05T03:05:42.264Z,8.00
2022-10-05T03:06:42.277Z,12.00
2022-10-05T03:07:42.236Z,12.40
2022-10-05T03:08:42.226Z,10.80
2022-10-05T03:09:42.207Z,10.00
2022-10-05T03:10:42.207Z,11.80
2022-10-05T03:11:42.175Z,9.30
2022-10-05T03:12:42.166Z,12.00
2022-10-05T03:13:42.147Z,9.80
2022-10-05T03:14:42.136Z,10.20
2022-10-05T03:15:42.162Z,9.30
2022-10-05T03:16:42.116Z,7.80
2022-10-05T03:17:42.097Z,8.60
2022-10-05T03:18:42.105Z,8.20
2022-10-05T03:19:42.067Z,7.80
2022-10-05T03:20:42.086Z,10.70
2022-10-05T03:21:42.057Z,9.20
2022-10-05T03:22:42.742Z,5.90
2022-10-05T03:23:42.015Z,7.70
2022-10-05T03:24:42.009Z,12.00
2022-10-05T03:25:42.036Z,8.60
2022-10-05T03:26:41.977Z,10.50
2022-10-05T03:27:41.958Z,9.30
2022-10-05T03:28:41.958Z,9.60
2022-10-05T03:29:41.938Z,8.30
2022-10-05T03:30:41.947Z,6.00
2022-10-05T03:31:41.944Z,10.10
2022-10-05T03:32:41.920Z,7.10
2022-10-05T03:33:41.879Z,13.10
2022-10-05T03:34:41.881Z,8.20
2022-10-05T03:35:41.869Z,9.10
2022-10-05T03:36:41.848Z,6.20
2022-10-05T03:37:41.830Z,7.60
2022-10-05T03:38:41.829Z,6.30
2022-10-05T03:39:41.799Z,8.60
2022-10-05T03:40:41.819Z,10.40
2022-10-05T03:41:41.785Z,9.70
2022-10-05T03:42:41.769Z,8.70
2022-10-05T03:43:41.748Z,11.60
2022-10-05T03:44:41.739Z,8.80
2022-10-05T03:45:41.729Z,10.90
2022-10-05T03:46:41.725Z,6.90
2022-10-05T03:47:41.704Z,10.30
2022-10-05T03:48:41.689Z,6.50
2022-10-05T03:49:41.671Z,10.50
2022-10-05T04:03:14.287Z,10.40
2022-10-05T04:04:14.294Z,11.40
2022-10-05T04:05:14.274Z,11.60
2022-10-05T04:06:15.254Z,10.00
2022-10-05T04:07:14.226Z,9.10
2022-10-05T04:08:14.236Z,12.00
2022-10-05T04:09:14.206Z,14.40
2022-10-05T04:10:14.205Z,12.10
2022-10-05T04:11:14.196Z,12.70
2022-10-05T04:12:14.184Z,8.30
2022-10-05T04:13:14.168Z,11.60
2022-10-05T04:14:14.156Z,11.90
2022-10-05T04:15:18.579Z,9.20
2022-10-05T04:16:14.172Z,12.30
2022-10-05T04:17:14.125Z,9.60
2022-10-05T04:18:14.106Z,9.30
2022-10-05T04:19:14.068Z,11.20
2022-10-05T04:20:14.075Z,11.60
2022-10-05T04:21:14.047Z,10.00
2022-10-05T04:22:14.045Z,10.00
2022-10-05T04:23:14.036Z,10.20
2022-10-05T04:24:14.007Z,14.20
2022-10-05T04:25:13.997Z,12.20
2022-10-05T04:26:14.078Z,12.80
2022-10-05T04:27:14.077Z,12.80
2022-10-05T04:28:14.031Z,13.30
2022-10-05T04:29:13.987Z,14.40
2022-10-05T04:30:14.065Z,9.80
2022-10-05T04:31:14.027Z,13.70
2022-10-05T04:32:14.022Z,14.80
2022-10-05T04:33:13.917Z,12.30
2022-10-05T04:34:13.919Z,13.90
2022-10-05T04:35:13.968Z,9.80
2022-10-05T04:36:13.954Z,12.70
2022-10-05T04:37:13.948Z,10.80
2022-10-05T04:38:13.849Z,12.30
2022-10-05T04:39:13.857Z,12.10
2022-10-05T04:40:13.906Z,12.30
2022-10-05T04:41:13.868Z,12.20
2022-10-05T04:42:13.879Z,10.20
2022-10-05T04:43:13.780Z,11.10
2022-10-05T04:44:13.790Z,12.20
2022-10-05T04:45:13.829Z,14.40
2022-10-05T04:46:13.866Z,11.50
2022-10-05T04:47:13.809Z,11.50
2022-10-05T04:48:14.738Z,15.70
2022-10-05T04:49:13.721Z,14.00
2022-10-05T04:50:13.771Z,14.50
2022-10-05T04:51:13.784Z,10.10
2022-10-05T04:52:13.749Z,12.10
2022-10-05T04:53:13.650Z,12.40
2022-10-05T04:54:13.661Z,10.80
2022-10-05T04:55:13.728Z,13.80
2022-10-05T04:56:13.682Z,14.30
2022-10-05T04:57:13.678Z,12.80
2022-10-05T04:58:13.590Z,14.70
2022-10-05T05:00:34.818Z,15.40
2022-10-05T05:01:34.813Z,17.60
2022-10-05T05:02:35.834Z,12.50
2022-10-05T05:03:34.850Z,16.30
2022-10-05T05:04:34.823Z,13.60
2022-10-05T05:05:34.774Z,14.70
2022-10-05T05:06:34.732Z,17.30
2022-10-05T05:07:34.744Z,14.60
2022-10-05T05:08:34.744Z,15.80
2022-10-05T05:09:34.757Z,11.40
2022-10-05T05:10:34.695Z,15.40
2022-10-05T05:11:34.670Z,18.90
2022-10-05T05:12:34.676Z,12.60
2022-10-05T05:13:34.684Z,17.10
2022-10-05T05:14:34.695Z,13.00
2022-10-05T05:15:35.656Z,15.80
2022-10-05T05:16:34.670Z,11.30
2022-10-05T05:17:34.606Z,13.90
2022-10-05T05:18:34.615Z,14.50
2022-10-05T05:19:34.626Z,12.70
2022-10-05T05:20:34.554Z,12.90
2022-10-05T05:21:56.568Z,9.90
2022-10-05T05:22:34.526Z,10.40
2022-10-05T05:23:34.506Z,10.30
2022-10-05T05:24:34.556Z,13.40
2022-10-05T05:25:34.607Z,13.10
2022-10-05T05:26:38.876Z,14.80
2022-10-05T05:27:56.516Z,10.80
2022-10-05T05:28:34.533Z,8.00
2022-10-05T05:29:34.489Z,13.40
2022-10-05T05:30:34.534Z,13.40
2022-10-05T05:31:34.611Z,10.70
2022-10-05T05:32:34.398Z,12.80
2022-10-05T05:33:34.409Z,13.40
2022-10-05T05:34:34.427Z,17.50
2022-10-05T05:35:34.487Z,13.00
2022-10-05T05:36:34.429Z,13.60
2022-10-05T05:37:34.350Z,13.90
2022-10-05T05:38:34.337Z,18.60
2022-10-05T05:39:34.359Z,17.80
2022-10-05T05:40:34.520Z,13.00
2022-10-05T05:41:34.367Z,10.00
2022-10-05T05:42:34.267Z,13.60
2022-10-05T05:43:34.284Z,11.10
2022-10-05T05:44:38.757Z,10.10
2022-10-05T05:45:34.338Z,15.40
2022-10-05T05:47:01.661Z,13.00
2022-10-05T05:47:35.413Z,14.90
2022-10-05T05:48:34.209Z,20.00
2022-10-05T05:49:34.223Z,13.00
2022-10-05T05:50:35.178Z,11.70
2022-10-05T05:51:34.229Z,11.70
2022-10-05T05:52:34.230Z,14.10
2022-10-05T05:53:34.142Z,13.00
2022-10-05T05:54:34.150Z,8.70
2022-10-05T05:55:35.119Z,12.20
2022-10-05T05:56:35.178Z,15.80
2022-10-05T05:57:34.209Z,14.90
2022-10-05T05:58:34.069Z,12.50
2022-10-05T05:59:34.080Z,10.50
2022-10-05T06:00:34.118Z,14.70
2022-10-05T06:01:35.121Z,12.20
2022-10-05T06:02:34.186Z,14.70
2022-10-05T06:03:34.006Z,13.50
2022-10-05T06:04:34.020Z,16.30
2022-10-05T06:05:34.087Z,13.60
2022-10-05T06:06:33.950Z,15.10
2022-10-05T06:07:34.982Z,9.80
2022-10-05T06:08:33.930Z,11.80
2022-10-05T06:09:33.920Z,12.70
2022-10-05T06:10:33.979Z,10.60
2022-10-05T06:11:33.969Z,10.10
2022-10-05T06:12:33.961Z,11.30
2022-10-05T06:13:33.974Z,12.00
2022-10-05T06:14:33.880Z,10.50
2022-10-05T06:15:33.931Z,13.00
2022-10-05T06:16:33.939Z,13.20
2022-10-05T06:17:33.921Z,20.40
2022-10-05T06:18:33.824Z,14.60
2022-10-05T06:19:33.810Z,15.80
2022-10-05T06:20:33.841Z,12.40
2022-10-05T06:21:33.762Z,15.00
2022-10-05T06:22:34.772Z,14.40
2022-10-05T06:23:33.843Z,11.10
2022-10-05T06:24:33.751Z,9.90
2022-10-05T06:25:33.802Z,14.80
2022-10-05T06:26:33.760Z,14.60
2022-10-05T06:27:33.773Z,14.20
2022-10-05T06:28:33.850Z,12.50
2022-10-05T06:29:33.663Z,13.90
2022-10-05T06:30:35.662Z,10.20
2022-10-05T06:31:33.783Z,14.10
2022-10-05T06:32:33.710Z,10.00
2022-10-05T06:33:33.740Z,13.10
2022-10-05T06:34:33.606Z,12.40
2022-10-05T06:35:33.664Z,14.40
2022-10-05T06:36:34.632Z,12.50
2022-10-05T06:37:33.636Z,11.50
2022-10-05T06:38:33.637Z,13.80
2022-10-05T06:39:33.542Z,12.50
2022-10-05T06:40:33.587Z,12.60
2022-10-05T06:41:34.573Z,11.30
2022-10-05T06:42:34.583Z,10.60
2022-10-05T06:43:33.564Z,11.70
2022-10-05T06:44:33.573Z,10.50
2022-10-05T06:45:33.605Z,8.50
2022-10-05T06:46:33.485Z,11.30
2022-10-05T06:47:33.494Z,9.40
2022-10-05T06:48:34.413Z,13.50
2022-10-05T06:49:33.501Z,17.20
2022-10-05T06:50:33.446Z,15.40
2022-10-05T06:51:33.431Z,14.20
2022-10-05T06:52:33.422Z,10.80
2022-10-05T06:53:34.354Z,12.40
2022-10-05T06:54:34.367Z,9.80
2022-10-05T06:55:33.386Z,10.60
2022-10-05T06:56:33.347Z,10.80
2022-10-05T06:57:33.383Z,10.50
2022-10-05T06:58:33.361Z,10.40
2022-10-05T06:59:33.373Z,9.10
2022-10-05T07:00:33.315Z,8.60
2022-10-05T07:01:33.373Z,8.40
2022-10-05T07:02:33.383Z,13.00
2022-10-05T07:03:33.296Z,10.70
2022-10-05T07:04:36.786Z,13.30
2022-10-05T07:05:33.266Z,12.40
2022-10-05T07:06:33.226Z,10.20
2022-10-05T07:07:33.249Z,11.80
2022-10-05T07:08:33.227Z,10.60
2022-10-05T07:09:33.227Z,6.80
2022-10-05T07:10:33.187Z,9.70
2022-10-05T07:11:33.147Z,8.50
2022-10-05T07:12:36.721Z,9.90
2022-10-05T07:13:33.155Z,9.00
2022-10-05T07:14:33.164Z,9.10
2022-10-05T07:15:33.138Z,9.60
2022-10-05T07:16:33.111Z,11.00
2022-10-05T07:17:34.118Z,11.60
2022-10-05T07:18:33.098Z,12.00
2022-10-05T07:19:33.099Z,10.40
2022-10-05T07:20:33.079Z,12.00
2022-10-05T07:21:33.017Z,11.60
2022-10-05T07:22:34.481Z,12.80
2022-10-05T07:23:33.030Z,10.00
2022-10-05T07:24:33.049Z,13.40
2022-10-05T07:25:33.037Z,12.20
2022-10-05T07:26:32.997Z,13.50
2022-10-05T07:27:33.972Z,13.80
2022-10-05T07:28:32.999Z,13.10
2022-10-05T07:29:32.969Z,10.80
2022-10-05T07:30:32.944Z,9.50
2022-10-05T07:31:32.910Z,10.10
2022-10-05T07:32:32.901Z,10.60
2022-10-05T07:33:32.890Z,9.30
2022-10-05T07:34:34.870Z,10.40
2022-10-05T07:35:32.822Z,10.60
2022-10-05T07:36:32.840Z,10.10
2022-10-05T07:37:32.810Z,10.70
2022-10-05T07:38:32.823Z,11.00
2022-10-05T07:39:58.474Z,9.70
2022-10-05T07:40:33.762Z,10.80
2022-10-05T07:41:32.764Z,10.80
2022-10-05T07:42:32.759Z,11.50
2022-10-05T07:43:57.512Z,12.70
2022-10-05T07:44:33.704Z,10.50
2022-10-05T07:45:32.937Z,10.70
2022-10-05T07:46:32.677Z,9.30
2022-10-05T07:47:32.691Z,10.90
2022-10-05T07:48:32.642Z,9.20
2022-10-05T07:49:32.897Z,9.40
2022-10-05T07:50:32.712Z,9.80
2022-10-05T07:51:32.606Z,10.90
2022-10-05T07:52:34.928Z,10.30
2022-10-05T07:53:32.623Z,9.80
2022-10-05T07:54:32.644Z,9.60
2022-10-05T07:55:32.638Z,11.80
2022-10-05T07:56:32.562Z,12.40
2022-10-05T07:57:32.547Z,11.10
2022-10-05T07:58:32.553Z,10.80
2022-10-05T07:59:32.563Z,8.80
2022-10-05T08:00:32.572Z,10.30
2022-10-05T08:01:32.582Z,8.90
2022-10-05T08:03:42.704Z,8.80
2022-10-05T08:04:42.723Z,8.60
2022-10-05T08:05:42.692Z,9.00
2022-10-05T08:06:42.761Z,8.20
2022-10-05T08:07:42.663Z,9.50
2022-10-05T08:08:42.663Z,8.00
2022-10-05T08:09:42.653Z,8.30
2022-10-05T08:10:42.706Z,9.10
2022-10-05T08:11:42.691Z,8.20
2022-10-05T08:12:42.594Z,7.70
2022-10-05T08:13:42.585Z,8.00
2022-10-05T08:14:42.606Z,9.70
2022-10-05T08:15:42.676Z,8.00
2022-10-05T08:16:42.603Z,12.90
2022-10-05T08:17:42.615Z,8.10
2022-10-05T08:18:42.514Z,8.20
2022-10-05T08:19:42.525Z,8.20
2022-10-05T08:20:42.565Z,8.40
2022-10-05T08:21:42.560Z,8.50
2022-10-05T08:22:42.575Z,9.70
2022-10-05T08:23:42.448Z,7.20
2022-10-05T08:24:42.457Z,10.60
2022-10-05T08:25:44.465Z,7.80
2022-10-05T08:26:42.476Z,9.50
2022-10-05T08:27:42.497Z,8.00
2022-10-05T08:28:42.366Z,8.00
2022-10-05T08:29:42.406Z,7.70
2022-10-05T08:30:42.347Z,7.60
2022-10-05T08:31:44.813Z,9.00
2022-10-05T08:32:42.405Z,6.90
2022-10-05T08:33:42.440Z,7.70
2022-10-05T08:34:42.340Z,7.20
2022-10-05T08:35:42.367Z,7.70
2022-10-05T08:36:42.339Z,8.20
2022-10-05T08:37:42.385Z,8.40
2022-10-05T08:38:42.427Z,7.20
2022-10-05T08:39:42.232Z,7.00
2022-10-05T08:40:42.299Z,7.80
2022-10-05T08:41:42.277Z,6.70
2022-10-05T08:42:42.194Z,6.60
2022-10-05T08:43:42.187Z,6.80
2022-10-05T08:44:42.169Z,6.50
2022-10-05T08:45:42.335Z,6.00
2022-10-05T08:46:42.202Z,7.10
2022-10-05T08:47:42.210Z,8.60
2022-10-05T08:48:43.137Z,6.60
2022-10-05T08:49:42.122Z,7.40
2022-10-05T08:50:42.162Z,6.60
2022-10-05T08:51:42.129Z,6.20
2022-10-05T08:52:42.140Z,5.00
2022-10-05T08:53:43.049Z,5.00
2022-10-05T08:54:42.049Z,7.50
2022-10-05T08:55:42.096Z,6.10
2022-10-05T08:56:42.068Z,5.80
2022-10-05T08:57:42.072Z,5.80
2022-10-05T08:58:42.081Z,5.90
2022-10-05T08:59:42.081Z,5.60
2022-10-05T09:00:41.970Z,6.10
2022-10-05T09:01:42.084Z,5.30
2022-10-05T09:02:42.045Z,6.20
2022-10-05T09:03:42.010Z,6.70
2022-10-05T09:04:42.011Z,5.70
2022-10-05T09:05:41.961Z,5.00
2022-10-05T09:06:41.923Z,4.70
2022-10-05T09:07:41.932Z,5.70
2022-10-05T09:08:41.942Z,5.30
2022-10-05T09:09:41.941Z,4.70
2022-10-05T09:10:41.872Z,4.70
2022-10-05T09:11:41.862Z,5.40
2022-10-05T09:12:41.863Z,6.40
2022-10-05T09:13:41.880Z,6.50
2022-10-05T09:14:41.877Z,6.70
2022-10-05T09:15:41.846Z,6.10
2022-10-05T09:16:41.743Z,6.00
2022-10-05T09:17:41.806Z,6.10
2022-10-05T09:18:41.802Z,4.80
2022-10-05T09:19:41.803Z,6.40
2022-10-05T09:20:41.753Z,5.00
2022-10-05T09:21:41.694Z,4.60
2022-10-05T09:22:41.724Z,4.70
2022-10-05T09:23:41.735Z,4.60
2022-10-05T09:24:45.001Z,5.00
2022-10-05T09:25:42.708Z,4.70
2022-10-05T09:26:41.654Z,5.00
2022-10-05T09:27:41.676Z,4.20
2022-10-05T09:28:41.731Z,4.30
2022-10-05T09:29:41.676Z,4.60
2022-10-05T09:30:41.623Z,4.20
2022-10-05T09:31:41.594Z,3.80
2022-10-05T09:32:41.536Z,5.00
2022-10-05T09:33:41.595Z,3.80
2022-10-05T09:34:42.528Z,4.10
2022-10-05T09:35:41.537Z,5.00
2022-10-05T09:36:41.517Z,4.70
2022-10-05T09:37:41.476Z,3.70
2022-10-05T09:38:41.526Z,3.90
2022-10-05T09:39:41.538Z,4.10
2022-10-05T09:40:41.528Z,7.10
2022-10-05T09:41:42.486Z,7.20
2022-10-05T09:42:41.455Z,4.40
2022-10-05T09:43:41.458Z,5.30
2022-10-05T09:44:41.467Z,5.10
2022-10-05T09:45:42.439Z,3.90
2022-10-05T09:46:41.411Z,4.20
2022-10-05T10:03:47.267Z,4.40
2022-10-05T10:04:47.349Z,4.50
2022-10-05T10:05:47.295Z,3.80
2022-10-05T10:06:47.270Z,5.50
2022-10-05T10:07:47.257Z,4.10
2022-10-05T10:08:49.239Z,5.30
2022-10-05T10:09:47.184Z,3.60
2022-10-05T10:10:47.225Z,4.50
2022-10-05T10:11:47.405Z,5.90
2022-10-05T10:12:47.191Z,3.70
2022-10-05T10:13:47.199Z,4.10
2022-10-05T10:14:47.209Z,4.70
2022-10-05T10:15:47.192Z,3.80
2022-10-05T10:16:47.109Z,3.60
2022-10-05T10:17:47.242Z,3.60
2022-10-05T10:18:47.074Z,4.70
2022-10-05T10:19:47.141Z,6.80
2022-10-05T10:20:47.081Z,6.40
2022-10-05T10:21:47.172Z,6.10
2022-10-05T10:22:47.059Z,3.60
2022-10-05T10:23:47.061Z,4.50
2022-10-05T10:24:47.072Z,4.40
2022-10-05T10:25:47.001Z,5.10
2022-10-05T10:26:46.991Z,3.10
2022-10-05T10:27:51.591Z,3.60
2022-10-05T10:28:48.022Z,3.70
2022-10-05T10:29:47.043Z,3.30
2022-10-05T10:30:47.092Z,2.80
2022-10-05T10:31:48.230Z,3.50
2022-10-05T10:32:46.966Z,3.80
2022-10-05T10:33:46.935Z,6.30
2022-10-05T10:34:46.855Z,4.10
2022-10-05T10:35:46.883Z,3.40
2022-10-05T10:36:47.119Z,3.60
2022-10-05T10:37:46.855Z,3.30
2022-10-05T10:38:46.854Z,3.30
2022-10-05T10:39:46.873Z,3.70
2022-10-05T10:40:46.804Z,6.20
2022-10-05T10:41:46.781Z,3.10
2022-10-05T10:42:47.811Z,3.10
2022-10-05T10:43:46.795Z,3.90
2022-10-05T10:44:46.797Z,4.90
2022-10-05T10:45:46.736Z,4.10
2022-10-05T10:46:47.138Z,4.50
2022-10-05T10:47:46.730Z,6.80
2022-10-05T10:48:46.724Z,4.60
2022-10-05T10:49:48.698Z,3.70
2022-10-05T10:50:46.678Z,3.10
2022-10-05T10:51:46.737Z,2.90
2022-10-05T10:52:46.648Z,3.20
2022-10-05T10:53:46.660Z,3.60
2022-10-05T10:54:47.688Z,2.70
2022-10-05T10:55:46.787Z,9.60
2022-10-05T10:56:46.939Z,4.60
2022-10-05T10:57:46.639Z,2.50
2022-10-05T10:58:46.620Z,2.40
2022-10-05T10:59:46.632Z,3.90
2022-10-05T11:00:46.629Z,2.60
2022-10-05T11:01:46.929Z,3.20
2022-10-05T11:02:46.635Z,4.30
2022-10-05T11:03:46.627Z,2.40
2022-10-05T11:04:46.525Z,2.20
2022-10-05T11:05:48.748Z,6.40
2022-10-05T11:06:46.488Z,2.50
2022-10-05T11:07:46.539Z,5.10
2022-10-05T11:08:46.535Z,2.80
2022-10-05T11:09:46.412Z,3.00
2022-10-05T11:10:46.464Z,2.70
2022-10-05T11:11:46.927Z,3.60
2022-10-05T11:12:48.423Z,3.50
2022-10-05T11:13:46.350Z,1.80
2022-10-05T11:14:46.371Z,2.10
2022-10-05T11:15:46.610Z,2.70
2022-10-05T11:16:46.573Z,2.50
2022-10-05T11:17:46.343Z,3.00
2022-10-05T11:18:46.286Z,3.10
2022-10-05T11:20:02.885Z,2.80
2022-10-05T11:20:47.256Z,1.80
2022-10-05T11:21:46.311Z,4.50
2022-10-05T11:22:46.249Z,2.30
2022-10-05T11:23:46.248Z,3.50
2022-10-05T11:24:46.207Z,3.50
2022-10-05T11:25:46.278Z,3.30
2022-10-05T11:26:46.623Z,5.80
2022-10-05T11:27:46.178Z,2.60
2022-10-05T11:28:46.160Z,2.70
2022-10-05T11:29:46.139Z,2.00
2022-10-05T11:30:48.941Z,1.90
2022-10-05T11:31:47.490Z,4.00
2022-10-05T11:32:46.090Z,2.10
2022-10-05T11:33:46.120Z,2.80
2022-10-05T11:34:46.121Z,2.30
2022-10-05T11:35:46.172Z,2.20
2022-10-05T11:36:46.108Z,2.10
2022-10-05T11:37:46.051Z,2.00
2022-10-05T11:38:46.053Z,2.00
2022-10-05T11:39:46.032Z,4.20
2022-10-05T11:40:46.004Z,2.40
2022-10-05T11:41:46.346Z,2.00
2022-10-05T11:42:46.038Z,2.30
2022-10-05T11:43:46.014Z,2.90
2022-10-05T11:44:45.965Z,3.30
2022-10-05T11:45:46.004Z,3.60
2022-10-05T11:46:46.008Z,3.00
2022-10-05T11:47:46.014Z,1.60
2022-10-05T11:48:45.945Z,2.10
2022-10-05T11:49:45.943Z,2.50
2022-10-05T11:50:45.885Z,1.90
2022-10-05T11:51:46.229Z,2.60
2022-10-05T11:52:45.856Z,1.90
2022-10-05T11:53:45.883Z,2.50
2022-10-05T11:55:09.968Z,2.30
2022-10-05T11:55:46.854Z,2.80
2022-10-05T11:56:48.453Z,4.20
2022-10-05T11:57:47.809Z,4.60
2022-10-05T11:58:45.786Z,4.50
2022-10-05T11:59:45.801Z,2.70
2022-10-05T12:00:45.773Z,3.10
2022-10-05T12:01:45.742Z,2.20
2022-10-05T12:02:45.897Z,3.50
2022-10-05T12:03:45.772Z,2.80
2022-10-05T12:04:45.800Z,3.30
2022-10-05T12:05:45.844Z,3.40
2022-10-05T12:06:45.961Z,3.40
2022-10-05T12:07:45.664Z,1.70
2022-10-05T12:08:45.654Z,4.20
2022-10-05T12:09:45.709Z,3.90
2022-10-05T12:10:46.666Z,1.80
2022-10-05T12:11:45.614Z,4.60
2022-10-05T12:12:45.595Z,2.30
2022-10-05T12:13:45.617Z,2.00
2022-10-05T12:14:45.607Z,4.10
2022-10-05T12:15:45.727Z,1.50
2022-10-05T12:16:46.548Z,2.10
2022-10-05T12:17:45.536Z,3.00
2022-10-05T12:18:45.576Z,7.00
2022-10-05T12:19:45.545Z,2.00
2022-10-05T12:20:45.578Z,1.70
2022-10-05T12:21:45.567Z,3.30
2022-10-05T12:22:46.500Z,2.50
2022-10-05T12:23:46.516Z,2.40
2022-10-05T12:24:45.680Z,4.60
2022-10-05T12:25:45.530Z,2.90
2022-10-05T12:26:45.423Z,4.00
2022-10-05T12:27:46.585Z,4.80
2022-10-05T12:28:45.398Z,4.10
2022-10-05T12:29:45.414Z,3.20
2022-10-05T12:30:45.441Z,2.00
2022-10-05T12:31:45.452Z,2.50
2022-10-05T12:32:45.422Z,4.50
2022-10-05T12:33:45.335Z,1.60
2022-10-05T12:34:45.350Z,2.20
2022-10-05T12:35:49.336Z,1.70
2022-10-05T12:37:03.113Z,2.60
2022-10-05T12:37:46.294Z,1.60
2022-10-05T12:38:45.264Z,2.60
2022-10-05T12:39:45.255Z,2.10
2022-10-05T12:40:45.314Z,2.50
2022-10-05T12:41:45.224Z,2.70
2022-10-05T12:42:45.214Z,1.50
2022-10-05T12:43:45.207Z,1.80
2022-10-05T12:44:45.209Z,2.70
2022-10-05T12:45:45.262Z,3.90
2022-10-05T12:46:45.156Z,2.60
2022-10-05T12:47:45.146Z,4.70
2022-10-05T12:48:45.136Z,3.20
2022-10-05T12:49:45.127Z,3.70
2022-10-05T12:50:45.117Z,2.30
2022-10-05T12:51:45.100Z,4.00
2022-10-05T12:52:45.078Z,2.60
2022-10-05T12:53:45.081Z,1.50
2022-10-05T12:54:45.072Z,2.70
2022-10-05T12:55:45.059Z,1.50
2022-10-05T12:56:45.051Z,2.80
2022-10-05T12:57:45.040Z,2.20
2022-10-05T12:58:46.042Z,2.70
2022-10-05T12:59:45.009Z,3.80
2022-10-05T13:00:45.065Z,4.60
2022-10-05T13:01:46.200Z,2.80
2022-10-05T13:02:46.164Z,4.20
2022-10-05T13:03:45.040Z,3.90
2022-10-05T13:04:44.943Z,3.40
2022-10-05T13:05:45.002Z,3.30
2022-10-05T13:06:45.983Z,1.60
2022-10-05T13:07:44.966Z,3.40
2022-10-05T13:09:06.993Z,3.70
2022-10-05T13:09:44.885Z,3.60
2022-10-05T13:10:44.932Z,3.40
2022-10-05T13:11:44.837Z,6.30
2022-10-05T13:12:45.925Z,1.80
2022-10-05T13:13:44.908Z,2.80
2022-10-05T13:14:44.925Z,2.70
2022-10-05T13:15:44.796Z,2.50
2022-10-05T13:16:44.884Z,3.00
2022-10-05T13:17:44.841Z,3.20
2022-10-05T13:18:44.845Z,3.80
2022-10-05T13:19:46.818Z,1.90
2022-10-05T13:20:44.785Z,2.30
2022-10-05T13:21:44.748Z,2.80
2022-10-05T13:22:44.720Z,3.30
2022-10-05T13:23:44.749Z,4.00
2022-10-05T13:24:44.771Z,2.40
2022-10-05T13:25:44.710Z,1.50
2022-10-05T13:26:44.662Z,2.20
2022-10-05T13:27:44.630Z,1.80
2022-10-05T13:28:44.713Z,3.90
2022-10-05T13:29:44.711Z,1.90
2022-10-05T13:30:44.651Z,2.90
2022-10-05T13:31:44.658Z,3.40
2022-10-05T13:32:44.575Z,2.10
2022-10-05T13:33:44.657Z,2.60
2022-10-05T13:34:44.642Z,1.80
2022-10-05T13:35:44.543Z,3.30
2022-10-05T13:36:44.574Z,2.10
2022-10-05T13:37:44.604Z,1.90
2022-10-05T13:38:46.554Z,4.70
2022-10-05T13:39:44.483Z,1.70